Mon, 14 Jun 2021 03:02:09 UTC

Information for RPM libsamplerate-devel-0.1.9-7.fc33.x86_64.rpm

ID22397052
Namelibsamplerate-devel
Version0.1.9
Release7.fc33
Epoch
Archx86_64
SummaryDevelopment related files for libsamplerate
DescriptionSecret Rabbit Code is a sample rate converter for audio. It is capable of arbitrary and time varying conversions. It can downsample by a factor of 12 and upsample by the same factor. The ratio of input and output sample rates can be a real number. The conversion ratio can also vary with time for speeding up and slowing down effects. This package contains development files for libsamplerate
Build Time2020-07-28 23:44:17 GMT
Size10,391
5049941a5984f1ad531200be4e41ad4c
LicenseBSD
Buildrootf33-build-21825698-1791728
Provides
libsamplerate-devel = 0.1.9-7.fc33
libsamplerate-devel(x86-64) = 0.1.9-7.fc33
pkgconfig(samplerate) = 0.1.9
Obsoletes No Obsoletes
Conflicts No Conflicts
Requires
/usr/bin/pkg-config
libsamplerate = 0.1.9-7.fc33
libsamplerate.so.0()(64bit)
pkgconfig
rpmlib(CompressedFileNames) <= 3.0.4-1
rpmlib(FileDigests) <= 4.6.0-1
rpmlib(PayloadFilesHavePrefix) <= 4.0-1
rpmlib(PayloadIsZstd) <= 5.4.18-1
Recommends No Recommends
Suggests No Suggests
Supplements No Supplements
Enhances No Enhances
Files
1 through 3 of 3
Name ascending sort Size
/usr/include/samplerate.h4,754
/usr/lib64/libsamplerate.so22
/usr/lib64/pkgconfig/samplerate.pc224
Component of
Page:
1 through 50 of 2702 >>>
Buildroot descending sort Created State
f33-build-27762856-3701414 2021-06-12 13:45:39 expired
f33-build-27742940-3693828 2021-06-11 09:22:43 expired
f33-build-27741212-3693828 2021-06-11 05:19:11 expired
f33-build-27740889-3693828 2021-06-11 05:01:31 expired
f33-build-27725462-3686941 2021-06-10 10:07:56 expired
f33-build-27718573-3686941 2021-06-10 04:22:03 expired
f33-build-27717508-3686941 2021-06-10 03:26:32 expired
f33-build-27714244-3686941 2021-06-10 00:56:26 expired
f33-build-27713346-3686941 2021-06-10 00:21:42 expired
f33-build-27711890-3686258 2021-06-09 22:59:56 expired
f33-build-27710142-3685508 2021-06-09 21:03:32 expired
f33-build-27709843-3685508 2021-06-09 20:38:25 expired
f33-build-27704409-3680169 2021-06-09 15:02:07 expired
f33-build-27701511-3680169 2021-06-09 11:08:12 expired
f33-build-27700808-3680169 2021-06-09 10:14:47 expired
f33-build-27699833-3680169 2021-06-09 09:08:29 expired
f33-build-27697147-3680169 2021-06-09 06:53:46 expired
f33-build-27696612-3680169 2021-06-09 06:34:25 expired
f33-build-27692079-3680169 2021-06-09 02:51:41 expired
f33-build-27691692-3680169 2021-06-09 02:15:49 expired
f33-build-27660011-3673191 2021-06-08 05:35:42 expired
f33-build-27658496-3673191 2021-06-08 04:07:39 expired
f33-build-27658209-3673191 2021-06-08 03:50:27 expired
f33-build-27651897-3669782 2021-06-07 21:28:32 expired
f33-build-27650193-3669782 2021-06-07 19:44:33 expired
f33-build-27645874-3669782 2021-06-07 17:08:35 expired
f33-build-27643938-3669782 2021-06-07 15:31:08 expired
f33-build-27547227-3656496 2021-06-04 01:44:37 expired
f33-build-27547212-3656496 2021-06-04 01:35:28 expired
f33-build-27536060-3637621 2021-06-02 03:02:28 expired
f33-build-27478207-3587371 2021-05-25 06:05:45 expired
f33-build-27478155-3587371 2021-05-25 06:04:12 expired
f33-build-27476349-3587371 2021-05-25 04:20:06 expired
f33-build-27470563-3583685 2021-05-24 18:35:32 expired
f33-build-27469802-3583685 2021-05-24 16:31:25 expired
f33-build-27468850-3582481 2021-05-24 14:48:35 expired
f33-build-27464076-3578866 2021-05-24 08:10:45 expired
f33-build-27463988-3578866 2021-05-24 07:53:53 expired
f33-build-27463341-3578677 2021-05-24 07:06:03 expired
f33-build-27463194-3578677 2021-05-24 06:57:26 expired
f33-build-27460459-3577787 2021-05-24 04:36:51 expired
f33-build-27453044-3576828 2021-05-23 19:10:03 expired
f33-build-27451241-3576444 2021-05-23 17:41:45 expired
f33-build-27450581-3576258 2021-05-23 16:59:11 expired
f33-build-27444561-3574075 2021-05-23 11:07:16 expired
f33-build-27441667-3574075 2021-05-23 08:15:10 expired
f33-build-27434237-3569870 2021-05-22 23:45:34 expired
f33-build-27432175-3569870 2021-05-22 21:33:31 expired
f33-build-27429139-3569870 2021-05-22 18:20:23 expired
f33-build-27426393-3569870 2021-05-22 15:15:23 expired